createdAt,value
2023-04-13T00:00:01.715Z,209.8
2023-04-13T00:05:01.435Z,215.0
2023-04-13T00:10:01.346Z,214.0
2023-04-13T00:15:01.775Z,190.6
2023-04-13T00:20:01.379Z,175.4
2023-04-13T00:25:01.513Z,200.2
2023-04-13T00:30:04.735Z,163.5
2023-04-13T00:35:01.396Z,118.8
2023-04-13T00:40:01.672Z,86.2
2023-04-13T00:45:06.524Z,88.2
2023-04-13T00:50:01.369Z,65.0
2023-04-13T00:55:01.479Z,47.4
2023-04-13T01:00:06.320Z,76.4
2023-04-13T01:05:06.456Z,107.9
2023-04-13T01:10:06.307Z,116.4
2023-04-13T01:15:06.365Z,153.6
2023-04-13T01:20:01.282Z,189.1
2023-04-13T01:25:02.446Z,176.3
2023-04-13T03:05:06.788Z,62.5
2023-04-13T03:10:01.459Z,46.2
2023-04-13T03:15:01.814Z,32.7
2023-04-13T03:20:01.558Z,33.0
2023-04-13T03:25:01.873Z,19.1
2023-04-13T03:35:01.910Z,9.6
2023-04-13T03:40:01.476Z,11.5
2023-04-13T03:55:02.193Z,7.6
2023-04-13T04:00:01.812Z,6.0
2023-04-13T04:10:02.186Z,8.4
2023-04-13T04:20:01.442Z,14.2
2023-04-13T04:30:01.547Z,19.3
2023-04-13T04:35:01.639Z,12.7
2023-04-13T04:40:01.857Z,9.4
2023-04-13T04:45:01.565Z,5.1
2023-04-13T05:55:01.418Z,10.7
2023-04-13T06:05:01.589Z,22.7
2023-04-13T06:15:01.703Z,32.4
2023-04-13T06:20:01.738Z,28.5
2023-04-13T06:25:01.711Z,67.5
2023-04-13T06:30:01.352Z,97.3
2023-04-13T06:35:01.795Z,138.1
2023-04-13T06:40:01.704Z,177.2
2023-04-13T06:50:02.677Z,215.0
2023-04-13T06:55:01.433Z,214.4
2023-04-13T07:00:01.489Z,234.2
2023-04-13T07:05:01.555Z,231.7
2023-04-13T07:10:01.385Z,226.4
2023-04-13T07:15:01.428Z,242.5
2023-04-13T07:20:02.399Z,261.8
2023-04-13T07:25:01.968Z,263.4
2023-04-13T07:30:01.614Z,271.2
2023-04-13T07:35:01.876Z,281.5
2023-04-13T07:40:07.391Z,285.2
2023-04-13T07:50:01.558Z,269.8
2023-04-13T08:00:01.359Z,199.1
2023-04-13T08:05:02.266Z,196.0
2023-04-13T08:10:01.429Z,184.8
2023-04-13T08:15:01.481Z,186.0
2023-04-13T08:20:01.403Z,193.9
2023-04-13T08:25:01.634Z,248.0
2023-04-13T08:30:01.377Z,255.0
2023-04-13T08:35:02.390Z,262.0
2023-04-13T08:40:01.374Z,275.5
2023-04-13T08:45:01.495Z,237.0
2023-04-13T08:50:01.494Z,228.5
2023-04-13T08:55:01.485Z,221.7
2023-04-13T09:00:01.505Z,210.2
2023-04-13T09:05:01.831Z,195.3
2023-04-13T09:10:01.683Z,234.4
2023-04-13T09:20:01.419Z,235.6
2023-04-13T09:35:01.265Z,260.4
2023-04-13T09:40:01.097Z,266.1
2023-04-13T09:45:01.231Z,263.5
2023-04-13T09:50:01.169Z,256.5
2023-04-13T10:15:01.817Z,253.2
2023-04-13T10:20:01.573Z,248.4
2023-04-13T10:25:01.812Z,250.7
2023-04-13T10:35:01.674Z,237.7
2023-04-13T10:40:01.476Z,223.7
2023-04-13T10:45:01.656Z,190.4
2023-04-13T10:50:01.603Z,159.2
2023-04-13T10:55:01.738Z,123.8
2023-04-13T11:00:01.841Z,99.7
2023-04-13T11:05:01.887Z,77.3
2023-04-13T11:10:06.972Z,75.9
2023-04-13T11:15:01.622Z,70.2
2023-04-13T11:20:01.587Z,68.6
2023-04-13T11:25:01.574Z,73.5
2023-04-13T11:30:01.821Z,75.2
2023-04-13T11:35:01.707Z,73.8
2023-04-13T11:40:01.521Z,73.6
2023-04-13T11:45:01.598Z,75.2
2023-04-13T11:50:01.539Z,70.5
2023-04-13T11:55:22.900Z,70.2
2023-04-13T12:00:01.872Z,72.7
2023-04-13T12:05:02.119Z,75.6
2023-04-13T12:20:04.729Z,88.5
2023-04-13T12:25:02.667Z,93.5
2023-04-13T12:45:01.114Z,59.2
2023-04-13T12:50:01.159Z,59.7
2023-04-13T12:55:01.050Z,60.6
2023-04-13T13:00:02.264Z,63.7
2023-04-13T13:05:01.176Z,63.0
2023-04-13T13:15:01.183Z,69.3
2023-04-13T13:20:03.045Z,72.6
2023-04-13T13:25:01.089Z,85.7
2023-04-13T13:30:00.989Z,91.1
2023-04-13T13:35:01.120Z,89.7
2023-04-13T13:40:01.303Z,86.8
2023-04-13T13:45:01.550Z,82.6
2023-04-13T13:50:01.307Z,67.3
2023-04-13T13:55:01.287Z,65.5
2023-04-13T14:00:01.074Z,65.3
2023-04-13T14:05:01.333Z,69.9
2023-04-13T14:10:01.187Z,75.7
2023-04-13T14:15:01.272Z,82.4
2023-04-13T14:20:01.013Z,82.8
2023-04-13T14:25:06.425Z,84.1
2023-04-13T14:30:01.011Z,84.1
2023-04-13T14:35:01.517Z,82.0
2023-04-13T14:40:06.052Z,77.5
2023-04-13T14:45:01.317Z,75.8
2023-04-13T14:50:06.090Z,76.6
2023-04-13T14:55:01.108Z,75.9
2023-04-13T15:00:01.108Z,76.1
2023-04-13T15:05:01.299Z,80.1
2023-04-13T15:10:00.968Z,81.4
2023-04-13T15:15:02.070Z,78.4
2023-04-13T15:20:01.055Z,78.3
2023-04-13T15:30:01.378Z,73.3
2023-04-13T15:35:01.068Z,72.6
2023-04-13T15:40:01.428Z,73.2
2023-04-13T15:45:01.067Z,71.3
2023-04-13T15:50:01.114Z,70.9
2023-04-13T15:55:01.039Z,70.6
2023-04-13T16:00:01.175Z,68.6
2023-04-13T16:05:01.114Z,66.5
2023-04-13T16:15:01.076Z,64.0
2023-04-13T16:20:01.067Z,64.0
2023-04-13T16:25:06.214Z,65.4
2023-04-13T16:35:02.339Z,68.2
2023-04-13T16:40:00.965Z,69.0
2023-04-13T16:45:01.142Z,74.0
2023-04-13T16:50:00.961Z,74.5
2023-04-13T16:55:01.095Z,73.5
2023-04-13T17:00:00.993Z,73.6
2023-04-13T17:10:06.104Z,68.5
2023-04-13T17:15:01.709Z,67.4
2023-04-13T17:20:00.900Z,68.2
2023-04-13T17:30:01.053Z,67.8
2023-04-13T17:35:01.044Z,68.2
2023-04-13T17:40:01.033Z,69.6
2023-04-13T17:45:01.354Z,71.4
2023-04-13T17:50:00.991Z,71.8
2023-04-13T17:55:01.131Z,72.2
2023-04-13T18:00:02.104Z,71.4
2023-04-13T18:05:01.325Z,70.7
2023-04-13T18:10:01.073Z,69.1
2023-04-13T18:15:01.162Z,68.3
2023-04-13T18:20:01.021Z,69.6
2023-04-13T18:25:01.093Z,69.9
2023-04-13T18:30:06.190Z,69.9
2023-04-13T18:35:01.153Z,73.0
2023-04-13T18:40:01.009Z,75.3
2023-04-13T18:45:01.188Z,78.9
2023-04-13T18:50:01.085Z,83.5
2023-04-13T18:55:01.070Z,86.9
2023-04-13T19:00:01.138Z,89.0
2023-04-13T19:05:01.443Z,93.0
2023-04-13T19:10:01.204Z,90.4
2023-04-13T19:15:01.070Z,89.1
2023-04-13T19:20:01.073Z,87.3
2023-04-13T19:25:01.157Z,85.0
2023-04-13T19:30:01.552Z,81.7
2023-04-13T19:35:01.182Z,83.1
2023-04-13T19:40:00.994Z,84.6
2023-04-13T19:45:01.193Z,88.0
2023-04-13T19:50:01.316Z,89.9
2023-04-13T19:55:01.316Z,93.4
2023-04-13T20:00:01.072Z,95.6
2023-04-13T20:05:01.127Z,96.0
2023-04-13T20:10:01.027Z,94.6
2023-04-13T20:15:01.457Z,93.9
2023-04-13T20:20:01.108Z,92.3
2023-04-13T20:25:01.175Z,88.6
2023-04-13T20:30:01.115Z,85.6
2023-04-13T20:35:01.151Z,83.2
2023-04-13T20:40:01.029Z,81.7
2023-04-13T20:45:01.065Z,78.3
2023-04-13T20:50:01.058Z,78.5
2023-04-13T20:55:01.100Z,78.7
2023-04-13T21:00:01.047Z,81.0
2023-04-13T21:05:01.148Z,82.0
2023-04-13T21:10:01.109Z,90.2
2023-04-13T21:15:01.130Z,92.1
2023-04-13T21:20:01.024Z,111.5
2023-04-13T21:25:06.140Z,110.5
2023-04-13T21:30:01.055Z,109.2
2023-04-13T21:35:01.155Z,104.8
2023-04-13T21:40:01.317Z,105.2
2023-04-13T21:45:01.635Z,92.6
2023-04-13T21:50:00.971Z,98.8
2023-04-13T21:55:01.093Z,108.1
2023-04-13T22:00:00.948Z,114.5
2023-04-13T22:05:01.130Z,123.2
2023-04-13T22:10:00.969Z,121.2
2023-04-13T22:15:01.178Z,120.5
2023-04-13T22:20:01.092Z,116.2
2023-04-13T22:25:01.334Z,112.7
2023-04-13T22:30:01.001Z,107.7
2023-04-13T22:35:01.003Z,102.3
2023-04-13T22:40:00.962Z,95.7
2023-04-13T22:45:06.122Z,84.5
2023-04-13T22:50:00.975Z,67.4
2023-04-13T22:55:04.672Z,49.1
2023-04-13T23:00:00.998Z,34.4
2023-04-13T23:05:06.330Z,26.4
2023-04-13T23:10:00.999Z,28.8
2023-04-13T23:15:01.106Z,27.6
2023-04-13T23:20:00.959Z,24.1
2023-04-13T23:25:01.102Z,23.5
2023-04-13T23:30:01.071Z,15.9
2023-04-13T23:45:01.157Z,9.5
2023-04-13T23:55:01.188Z,9.9
